Time;durP1;ratioP1;P1;durP2;ratioP2;P2;SDS_P1;SDS_P2;PMS_P1;PMS_P2;Temp;Humidity;BMP_temperature;BMP_pressure;BME280_temperature;BME280_humidity;BME280_pressure;Samples;Min_cycle;Max_cycle;Signal;HPM_P1;HPM_P2
2021/04/10 00:00:08;;;;;;;23.75;12.98;;;;;;;8.09;79.95;102239.69;5054219;28;20060;-74
2021/04/10 00:02:54;;;;;;;18.88;11.57;;;;;;;8.05;80.94;102242.22;5052867;28;20112;-74
2021/04/10 00:05:40;;;;;;;20.02;11.50;;;;;;;8.34;78.90;102235.78;5054700;28;20060;-74
2021/04/10 00:08:26;;;;;;;19.30;11.27;;;;;;;8.00;80.86;102236.06;5053588;28;20445;-73
2021/04/10 00:11:12;;;;;;;19.35;11.90;;;;;;;8.21;78.73;102239.03;5054017;28;20060;-74
2021/04/10 00:13:58;;;;;;;20.50;12.07;;;;;;;7.84;81.41;102231.41;5053643;28;20075;-73
2021/04/10 00:16:44;;;;;;;17.27;10.55;;;;;;;8.11;77.75;102231.88;5053674;28;20043;-74
2021/04/10 00:19:31;;;;;;;13.60;8.88;;;;;;;8.14;76.33;102237.16;5053255;28;20029;-74
2021/04/10 00:22:17;;;;;;;12.77;7.95;;;;;;;8.22;71.97;102235.56;5038609;28;20102;-74
2021/04/10 00:25:05;;;;;;;10.18;6.68;;;;;;;8.25;70.11;102227.78;5054047;28;20104;-74
2021/04/10 00:27:50;;;;;;;10.82;6.80;;;;;;;8.31;68.04;102227.88;5052575;28;20021;-73
2021/04/10 00:30:36;;;;;;;11.35;6.68;;;;;;;8.29;67.95;102227.88;5054289;28;20489;-74
2021/04/10 00:33:22;;;;;;;9.13;6.28;;;;;;;7.90;67.45;102228.91;5052667;28;20095;-73
2021/04/10 00:36:09;;;;;;;10.75;6.40;;;;;;;8.15;66.80;102223.22;5054526;28;20100;-74
2021/04/10 00:38:55;;;;;;;14.77;7.22;;;;;;;8.19;68.60;102225.94;5038299;28;20039;-74
2021/04/10 00:41:40;;;;;;;16.42;9.27;;;;;;;7.89;71.20;102221.94;5053698;28;20029;-73
2021/04/10 00:44:26;;;;;;;24.05;12.10;;;;;;;8.08;75.26;102217.03;5053092;28;20449;-73
2021/04/10 00:47:12;;;;;;;18.77;10.20;;;;;;;8.12;74.61;102216.22;5055662;28;20029;-75
2021/04/10 00:49:58;;;;;;;12.43;8.07;;;;;;;8.01;74.89;102212.59;5056899;28;20025;-73
2021/04/10 00:52:45;;;;;;;16.35;8.60;;;;;;;7.87;76.84;102213.19;5042731;28;20136;-74
2021/04/10 00:55:31;;;;;;;13.95;8.75;;;;;;;7.92;78.82;102208.94;5058468;28;20473;-74
2021/04/10 00:58:17;;;;;;;15.55;9.32;;;;;;;7.60;82.13;102210.97;5057175;28;20029;-73
2021/04/10 01:01:04;;;;;;;15.55;9.48;;;;;;;7.67;82.32;102206.78;5057275;28;20071;-73
2021/04/10 01:03:50;;;;;;;18.77;11.30;;;;;;;7.90;82.72;102208.03;5057006;28;20047;-74
2021/04/10 01:06:37;;;;;;;17.83;10.98;;;;;;;7.39;85.65;102202.75;5057659;28;20503;-73
2021/04/10 01:09:22;;;;;;;16.88;10.38;;;;;;;7.35;88.58;102200.94;5057563;28;20043;-73
2021/04/10 01:12:26;;;;;;;20.77;10.93;;;;;;;7.43;89.97;102201.09;5056915;28;20021;-74
2021/04/10 01:15:21;;;;;;;36.38;13.90;;;;;;;7.24;91.09;102196.38;5056752;28;20032;-73
2021/04/10 01:18:29;;;;;;;27.45;12.93;;;;;;;7.30;92.10;102196.47;5057090;28;20449;-73
2021/04/10 01:22:04;;;;;;;23.27;13.18;;;;;;;7.27;95.79;102197.31;5056062;28;20080;-73
2021/04/10 01:25:06;;;;;;;22.38;13.15;;;;;;;7.11;99.07;102195.25;5021399;28;20037;-73
2021/04/10 01:27:57;;;;;;;25.58;14.70;;;;;;;6.79;100.00;102185.03;5056089;28;20350;-74
2021/04/10 01:30:44;;;;;;;21.65;13.18;;;;;;;6.88;100.00;102187.81;5057003;28;20060;-73
2021/04/10 01:33:36;;;;;;;20.52;12.65;;;;;;;6.84;100.00;102189.50;5056223;28;20060;-74
2021/04/10 01:36:27;;;;;;;21.55;13.15;;;;;;;6.81;100.00;102185.91;5057046;28;20060;-73
2021/04/10 01:39:13;;;;;;;20.83;12.18;;;;;;;6.97;100.00;102175.84;5055818;28;20048;-73
2021/04/10 01:42:00;;;;;;;20.85;12.80;;;;;;;6.91;100.00;102185.28;5056578;28;20079;-74
2021/04/10 01:44:47;;;;;;;23.02;13.13;;;;;;;7.01;100.00;102188.09;5056148;28;20031;-74
2021/04/10 01:47:34;;;;;;;24.38;14.80;;;;;;;6.63;100.00;102177.72;5042079;28;20025;-73
2021/04/10 01:50:21;;;;;;;25.27;14.63;;;;;;;6.42;100.00;102185.03;5056056;28;20029;-73
2021/04/10 01:53:08;;;;;;;22.13;14.27;;;;;;;6.72;100.00;102184.03;5056369;28;20454;-73
2021/04/10 01:55:55;;;;;;;16.45;11.57;;;;;;;6.65;100.00;102181.22;5056150;28;20025;-74
2021/04/10 01:58:43;;;;;;;20.92;12.70;;;;;;;6.54;100.00;102181.00;5055735;28;20036;-73
2021/04/10 02:01:30;;;;;;;24.75;13.45;;;;;;;6.94;100.00;102185.31;5056464;28;20504;-74
2021/04/10 02:04:18;;;;;;;20.27;13.45;;;;;;;6.60;100.00;102188.97;5055765;28;20361;-73
2021/04/10 02:07:04;;;;;;;18.63;12.77;;;;;;;6.29;100.00;102186.50;5056451;28;20029;-74
2021/04/10 02:09:51;;;;;;;19.27;11.98;;;;;;;6.64;100.00;102188.19;5056357;28;20024;-73
2021/04/10 02:12:38;;;;;;;19.13;11.52;;;;;;;6.33;100.00;102183.13;5055562;28;20021;-73
2021/04/10 02:15:23;;;;;;;14.48;10.25;;;;;;;6.23;100.00;102185.50;5055291;28;20043;-74
2021/04/10 02:18:09;;;;;;;14.70;9.90;;;;;;;6.46;100.00;102187.75;5055914;28;20036;-73
2021/04/10 02:20:59;;;;;;;17.38;10.25;;;;;;;6.22;100.00;102188.94;5055524;28;20098;-73
2021/04/10 02:23:44;;;;;;;13.80;9.32;;;;;;;6.26;100.00;102186.44;5041182;28;20044;-73
2021/04/10 02:26:30;;;;;;;18.45;10.02;;;;;;;6.49;100.00;102179.13;5055431;28;20438;-74
2021/04/10 02:29:16;;;;;;;14.68;9.70;;;;;;;6.34;100.00;102190.09;5041847;28;20021;-73
2021/04/10 02:32:02;;;;;;;14.55;9.27;;;;;;;6.26;100.00;102183.81;5055419;28;20024;-74
2021/04/10 02:35:03;;;;;;;12.30;8.73;;;;;;;6.17;100.00;102190.53;5055509;28;20057;-73
2021/04/10 02:37:50;;;;;;;13.77;9.20;;;;;;;6.24;100.00;102184.63;5056128;28;20025;-73
2021/04/10 02:40:38;;;;;;;12.02;8.48;;;;;;;5.58;100.00;102193.34;5055383;28;20083;-73
2021/04/10 02:43:30;;;;;;;13.13;8.75;;;;;;;5.67;100.00;102186.69;5055472;28;20057;-73
2021/04/10 02:46:17;;;;;;;11.95;7.97;;;;;;;5.75;100.00;102192.06;5055170;28;20025;-73
2021/04/10 02:49:09;;;;;;;12.98;8.30;;;;;;;5.83;100.00;102194.03;5041139;28;20111;-73
2021/04/10 02:51:58;;;;;;;13.60;8.85;;;;;;;5.73;100.00;102192.00;5054818;28;20063;-73
2021/04/10 02:54:48;;;;;;;14.38;9.00;;;;;;;5.79;100.00;102191.31;5055644;28;20120;-73
2021/04/10 02:57:35;;;;;;;12.52;8.50;;;;;;;5.87;100.00;102180.25;5054848;28;20029;-73
2021/04/10 03:00:23;;;;;;;13.57;8.40;;;;;;;5.90;100.00;102184.69;5055376;28;20029;-73
2021/04/10 03:03:12;;;;;;;16.80;8.88;;;;;;;5.62;100.00;102179.59;5054740;28;20024;-73
2021/04/10 03:06:02;;;;;;;14.93;8.80;;;;;;;5.96;100.00;102188.31;5055485;28;20462;-74
2021/04/10 03:08:48;;;;;;;13.82;9.57;;;;;;;5.77;100.00;102177.38;5053950;28;20408;-73
2021/04/10 03:11:34;;;;;;;16.42;9.35;;;;;;;5.83;100.00;102180.16;5055251;28;20052;-73
2021/04/10 03:14:20;;;;;;;13.77;8.90;;;;;;;5.78;100.00;102185.19;5053874;28;20511;-74
2021/04/10 03:17:08;;;;;;;14.98;9.18;;;;;;;5.91;100.00;102182.09;5054751;28;20039;-75
2021/04/10 03:19:55;;;;;;;20.13;9.48;;;;;;;5.97;100.00;102187.47;5054671;28;20039;-73
2021/04/10 03:22:43;;;;;;;27.27;10.85;;;;;;;5.86;100.00;102183.72;5039757;28;20057;-74
2021/04/10 03:25:29;;;;;;;22.30;10.43;;;;;;;5.67;100.00;102180.59;5039536;28;20029;-73
2021/04/10 03:28:15;;;;;;;21.73;10.60;;;;;;;5.87;100.00;102189.81;5054968;28;20352;-74
2021/04/10 03:31:02;;;;;;;19.27;9.75;;;;;;;5.89;100.00;102183.78;5054288;28;20055;-74
2021/04/10 03:33:48;;;;;;;17.80;10.18;;;;;;;6.13;100.00;102191.31;5053851;28;20051;-74
2021/04/10 03:36:34;;;;;;;16.45;10.13;;;;;;;5.73;100.00;102186.81;5039604;28;20029;-74
2021/04/10 03:39:20;;;;;;;18.58;10.85;;;;;;;5.72;100.00;102186.78;5038841;28;20178;-73
2021/04/10 03:42:09;;;;;;;26.10;10.55;;;;;;;5.50;100.00;102193.13;5054957;28;20036;-73
2021/04/10 03:44:55;;;;;;;20.95;11.00;;;;;;;5.60;100.00;102196.84;5053272;28;20048;-74
2021/04/10 03:47:41;;;;;;;23.95;11.73;;;;;;;5.54;100.00;102201.91;5039775;28;20060;-74
2021/04/10 03:50:26;;;;;;;23.10;10.90;;;;;;;5.27;100.00;102200.31;5053394;28;20035;-73
2021/04/10 03:53:12;;;;;;;17.17;10.50;;;;;;;5.57;100.00;102196.78;5054363;28;20079;-74
2021/04/10 03:55:58;;;;;;;21.52;11.48;;;;;;;5.47;100.00;102202.59;5053363;28;20040;-74
2021/04/10 03:58:43;;;;;;;20.35;11.23;;;;;;;5.35;100.00;102208.34;5053206;28;20028;-73
2021/04/10 04:01:29;;;;;;;19.77;11.52;;;;;;;5.60;100.00;102199.47;5053583;28;20366;-74
2021/04/10 04:04:15;;;;;;;20.83;11.07;;;;;;;5.57;100.00;102209.75;5053740;28;20373;-74
2021/04/10 04:07:01;;;;;;;15.95;11.15;;;;;;;5.78;100.00;102202.56;5053373;28;20024;-74
2021/04/10 04:09:47;;;;;;;17.52;10.18;;;;;;;5.22;100.00;102201.91;5053386;28;20090;-73
2021/04/10 04:12:33;;;;;;;14.73;10.48;;;;;;;5.04;100.00;102209.22;5053243;28;20059;-73
2021/04/10 04:15:19;;;;;;;16.88;9.73;;;;;;;5.16;100.00;102211.25;5052568;28;20478;-74
2021/04/10 04:18:04;;;;;;;16.35;10.40;;;;;;;5.34;100.00;102216.94;5053933;28;20090;-73
2021/04/10 04:20:50;;;;;;;16.13;10.52;;;;;;;5.43;100.00;102218.09;5052559;28;20032;-74
2021/04/10 04:23:36;;;;;;;19.77;10.98;;;;;;;5.26;100.00;102219.34;5053615;28;20107;-74
2021/04/10 04:26:22;;;;;;;14.95;10.50;;;;;;;5.56;100.00;102226.22;5051529;28;20064;-73
2021/04/10 04:29:08;;;;;;;18.95;11.63;;;;;;;5.62;100.00;102224.66;5053477;28;20358;-73
2021/04/10 04:31:53;;;;;;;37.88;19.83;;;;;;;5.69;100.00;102228.28;5052812;28;20025;-74
2021/04/10 04:34:39;;;;;;;20.42;12.75;;;;;;;5.53;100.00;102223.53;5053346;28;20108;-74
2021/04/10 04:37:25;;;;;;;18.17;11.30;;;;;;;5.22;100.00;102233.09;5053796;28;20450;-74
2021/04/10 04:40:12;;;;;;;21.17;10.90;;;;;;;4.79;100.00;102239.59;5053252;28;20518;-73
2021/04/10 04:42:58;;;;;;;15.43;10.38;;;;;;;4.84;100.00;102244.09;5053685;28;20029;-73
2021/04/10 04:45:44;;;;;;;17.17;11.13;;;;;;;5.08;100.00;102243.94;5038513;28;20017;-74
2021/04/10 04:48:30;;;;;;;17.45;10.52;;;;;;;5.27;100.00;102241.03;5038100;28;20357;-73
2021/04/10 04:51:21;;;;;;;15.32;10.75;;;;;;;5.35;100.00;102242.13;5052967;28;20033;-74
2021/04/10 04:54:07;;;;;;;20.75;11.38;;;;;;;5.53;100.00;102246.91;5039620;28;20040;-74
2021/04/10 04:56:53;;;;;;;17.15;11.95;;;;;;;5.70;100.00;102241.34;5038847;28;20029;-74
2021/04/10 04:59:39;;;;;;;21.35;12.60;;;;;;;6.07;100.00;102249.25;5053373;28;20090;-74
2021/04/10 05:02:24;;;;;;;20.67;12.70;;;;;;;6.10;100.00;102249.34;5052824;28;20408;-73
2021/04/10 05:05:11;;;;;;;20.45;12.57;;;;;;;6.20;100.00;102240.06;5052869;28;20021;-73
2021/04/10 05:07:56;;;;;;;21.98;12.32;;;;;;;5.97;100.00;102242.09;5052802;28;20036;-73
2021/04/10 05:10:42;;;;;;;19.08;11.65;;;;;;;6.28;100.00;102246.31;5056382;28;20021;-74
2021/04/10 05:13:28;;;;;;;21.58;12.98;;;;;;;6.46;100.00;102250.25;5055391;28;20029;-73
2021/04/10 05:16:13;;;;;;;18.00;11.50;;;;;;;6.30;100.00;102247.25;5053188;28;20404;-74
2021/04/10 05:18:59;;;;;;;18.45;12.15;;;;;;;6.56;100.00;102241.81;5052813;28;20098;-74
2021/04/10 05:21:45;;;;;;;19.50;12.88;;;;;;;6.65;100.00;102238.53;5052224;28;20102;-73
2021/04/10 05:24:31;;;;;;;20.52;13.18;;;;;;;6.62;100.00;102238.44;5053391;28;20453;-74
2021/04/10 05:27:17;;;;;;;21.42;12.35;;;;;;;6.67;100.00;102245.53;5038929;28;20025;-72
2021/04/10 05:30:04;;;;;;;17.70;12.00;;;;;;;6.97;100.00;102247.94;5053504;28;20501;-73
2021/04/10 05:32:49;;;;;;;20.42;12.60;;;;;;;6.82;100.00;102248.47;5053541;28;20113;-72
2021/04/10 05:35:35;;;;;;;17.90;12.18;;;;;;;7.16;100.00;102250.06;5057541;28;20043;-73
2021/04/10 05:38:21;;;;;;;21.77;12.35;;;;;;;6.81;100.00;102257.16;5056573;28;20021;-73
2021/04/10 05:41:07;;;;;;;23.50;12.13;;;;;;;6.96;100.00;102252.28;5056809;28;20033;-74
2021/04/10 05:43:53;;;;;;;19.73;12.98;;;;;;;7.09;100.00;102250.78;5057166;28;20032;-73
2021/04/10 05:46:39;;;;;;;22.10;13.35;;;;;;;7.01;100.00;102248.03;5056432;28;20024;-73
2021/04/10 05:49:25;;;;;;;27.05;14.25;;;;;;;7.19;100.00;102255.38;5041974;28;20116;-73
2021/04/10 05:52:10;;;;;;;26.67;14.75;;;;;;;7.36;100.00;102257.44;5041595;28;20028;-74
2021/04/10 05:54:56;;;;;;;26.98;13.55;;;;;;;7.06;100.00;102256.81;5055879;28;20097;-73
2021/04/10 05:57:42;;;;;;;20.80;13.00;;;;;;;7.20;100.00;102257.97;5056638;28;20024;-73
2021/04/10 06:00:28;;;;;;;21.67;12.13;;;;;;;7.38;100.00;102260.06;5056791;28;20087;-73
2021/04/10 06:03:15;;;;;;;16.95;11.38;;;;;;;7.76;100.00;102256.50;5055746;28;20060;-73
2021/04/10 06:06:01;;;;;;;17.88;11.57;;;;;;;7.98;100.00;102264.72;5056554;28;20029;-73
2021/04/10 06:08:47;;;;;;;21.27;11.77;;;;;;;8.31;97.97;102259.22;5055483;28;20036;-72
2021/04/10 06:11:33;;;;;;;17.92;11.38;;;;;;;8.49;96.86;102260.38;5056277;28;20500;-72
2021/04/10 06:14:20;;;;;;;21.48;12.65;;;;;;;8.44;96.54;102256.81;5055233;28;20025;-72
2021/04/10 06:17:06;;;;;;;17.67;11.73;;;;;;;8.40;98.62;102259.38;5056006;28;20025;-72
2021/04/10 06:19:51;;;;;;;21.90;12.95;;;;;;;8.60;96.87;102258.81;5041854;28;20090;-72
2021/04/10 06:22:37;;;;;;;16.20;11.65;;;;;;;8.80;94.75;102256.50;5055071;28;20044;-73
2021/04/10 06:25:23;;;;;;;21.05;11.43;;;;;;;8.57;94.54;102263.13;5055121;28;20100;-72
2021/04/10 06:28:09;;;;;;;20.08;12.98;;;;;;;8.75;92.17;102256.44;5055608;28;20028;-72
2021/04/10 06:30:56;;;;;;;19.13;11.50;;;;;;;8.95;88.55;102252.38;5055994;28;20028;-72
2021/04/10 06:33:42;;;;;;;16.15;11.15;;;;;;;9.32;86.68;102259.81;5040627;28;20029;-72
2021/04/10 06:36:28;;;;;;;20.58;11.02;;;;;;;8.70;88.44;102254.59;5055342;28;20044;-72
2021/04/10 06:39:13;;;;;;;19.65;11.82;;;;;;;8.92;86.75;102256.69;5054813;28;20081;-72
2021/04/10 06:42:00;;;;;;;16.48;11.23;;;;;;;9.34;83.29;102257.22;5055710;28;20031;-72
2021/04/10 06:44:46;;;;;;;20.42;11.35;;;;;;;8.88;87.03;102257.50;5053998;28;20025;-72
2021/04/10 06:47:33;;;;;;;21.48;12.50;;;;;;;9.25;84.78;102251.88;5055005;28;20357;-72
2021/04/10 06:50:22;;;;;;;16.30;11.65;;;;;;;9.23;82.33;102246.63;5028045;28;20021;-72
2021/04/10 06:53:14;;;;;;;20.33;12.05;;;;;;;9.49;80.08;102250.41;5055920;28;20171;-72
2021/04/10 06:56:03;;;;;;;19.40;12.10;;;;;;;9.79;78.07;102247.25;5054878;28;20363;-71
2021/04/10 06:59:15;;;;;;;18.65;12.07;;;;;;;10.07;74.22;102250.19;5054348;28;20099;-72
2021/04/10 07:02:01;;;;;;;21.27;11.75;;;;;;;10.52;72.99;102239.19;5055057;28;20021;-72
2021/04/10 07:04:47;;;;;;;20.00;12.60;;;;;;;10.75;72.17;102231.47;5054192;28;20093;-72
2021/04/10 07:07:34;;;;;;;18.08;11.93;;;;;;;10.62;71.82;102246.25;5055111;28;20423;-72
2021/04/10 07:10:20;;;;;;;20.52;12.40;;;;;;;10.94;70.10;102236.84;5040342;28;20035;-72
2021/04/10 07:13:06;;;;;;;19.30;12.30;;;;;;;11.03;69.24;102236.88;5054440;28;20025;-72
2021/04/10 07:15:52;;;;;;;23.52;11.82;;;;;;;11.18;66.44;102247.44;5039219;28;20025;-72
2021/04/10 07:18:39;;;;;;;18.15;11.63;;;;;;;11.17;65.85;102231.69;5054786;28;20111;-72
2021/04/10 07:21:24;;;;;;;18.60;11.25;;;;;;;11.43;63.98;102235.28;5054741;28;20033;-72
2021/04/10 07:24:10;;;;;;;21.35;12.68;;;;;;;11.67;64.00;102241.53;5053736;28;20045;-75
2021/04/10 07:26:58;;;;;;;17.48;11.23;;;;;;;12.07;61.55;102242.44;5052758;28;20104;-74
2021/04/10 07:29:49;;;;;;;16.35;10.70;;;;;;;12.21;58.13;102231.06;5039932;28;20067;-72
2021/04/10 07:32:38;;;;;;;18.13;9.52;;;;;;;12.67;55.02;102238.03;5052594;28;20032;-73
2021/04/10 07:35:41;;;;;;;13.60;9.25;;;;;;;12.95;52.86;102237.06;5053671;28;20041;-72
2021/04/10 07:38:32;;;;;;;6.15;3.40;;;;;;;13.06;39.11;102234.47;5053289;28;20100;-72
2021/04/10 07:41:20;;;;;;;4.50;3.00;;;;;;;12.88;35.81;102238.00;5039115;28;20488;-73
2021/04/10 07:44:06;;;;;;;5.63;3.30;;;;;;;13.06;35.28;102232.69;5053346;28;20422;-73
2021/04/10 07:47:03;;;;;;;4.50;3.00;;;;;;;12.64;35.21;102235.41;5038770;28;20029;-72
2021/04/10 07:49:49;;;;;;;4.53;3.28;;;;;;;13.66;35.18;102223.59;5053574;28;20032;-73
2021/04/10 07:52:34;;;;;;;8.77;4.55;;;;;;;13.45;36.37;102229.88;5053224;28;20059;-73
2021/04/10 07:55:42;;;;;;;5.57;3.60;;;;;;;14.07;35.24;102221.59;5053067;28;20095;-72
2021/04/10 07:58:33;;;;;;;5.53;3.55;;;;;;;14.18;34.90;102219.72;5053335;28;20568;-72
2021/04/10 08:01:18;;;;;;;7.47;3.47;;;;;;;14.22;33.04;102209.19;5053332;28;20021;-73
2021/04/10 08:04:14;;;;;;;4.80;3.10;;;;;;;13.95;32.35;102219.91;5052945;28;20021;-72
2021/04/10 08:07:03;;;;;;;9.05;3.80;;;;;;;14.61;32.05;102211.44;5052667;28;20036;-73
2021/04/10 08:09:58;;;;;;;5.32;3.55;;;;;;;14.69;31.35;102206.06;5053007;28;20331;-72
2021/04/10 08:12:44;;;;;;;4.70;3.40;;;;;;;15.26;31.33;102205.38;5053130;28;20033;-73
2021/04/10 08:15:30;;;;;;;7.00;3.60;;;;;;;15.25;31.30;102208.03;5038135;28;20063;-72
2021/04/10 08:18:23;;;;;;;6.07;3.35;;;;;;;15.41;30.34;102201.69;5054196;28;20356;-73
2021/04/10 08:21:09;;;;;;;7.00;3.47;;;;;;;15.48;30.60;102203.38;5052904;28;20103;-72
2021/04/10 08:23:56;;;;;;;6.18;3.30;;;;;;;15.68;29.90;102211.88;5031457;28;631347;-74
2021/04/10 08:26:42;;;;;;;4.57;3.10;;;;;;;16.19;29.60;102200.50;5053238;28;20037;-74
2021/04/10 08:29:29;;;;;;;4.93;3.22;;;;;;;16.25;29.50;102201.25;5053795;28;20067;-73
2021/04/10 08:32:15;;;;;;;6.03;3.47;;;;;;;16.63;28.70;102195.31;5038747;28;20408;-73
2021/04/10 08:35:02;;;;;;;8.50;3.80;;;;;;;16.85;28.41;102197.53;5052714;28;20039;-73
2021/04/10 08:37:55;;;;;;;4.88;3.50;;;;;;;16.10;28.42;102197.97;5053555;28;20129;-74
2021/04/10 08:40:41;;;;;;;5.45;3.10;;;;;;;16.52;29.22;102192.84;5053518;28;20021;-72
2021/04/10 08:43:30;;;;;;;4.30;2.80;;;;;;;16.77;25.57;102195.91;5053413;28;20063;-73
2021/04/10 08:46:20;;;;;;;4.93;2.10;;;;;;;16.43;24.66;102192.19;5038449;28;20035;-72
2021/04/10 08:49:06;;;;;;;2.60;2.15;;;;;;;17.19;25.29;102187.09;5038402;28;20021;-75
2021/04/10 08:51:59;;;;;;;4.80;3.63;;;;;;;17.10;25.29;102182.88;5052999;28;20040;-75
2021/04/10 08:54:51;;;;;;;3.38;2.42;;;;;;;17.42;24.41;102179.56;5053596;28;20373;-74
2021/04/10 08:57:39;;;;;;;3.75;2.33;;;;;;;17.87;24.24;102183.78;5053049;28;20059;-77
2021/04/10 09:00:28;;;;;;;3.55;2.42;;;;;;;17.70;24.51;102178.91;5053278;28;20032;-74
2021/04/10 09:03:14;;;;;;;4.35;2.33;;;;;;;17.58;23.57;102176.53;5053035;28;20064;-74
2021/04/10 09:06:00;;;;;;;3.63;2.78;;;;;;;17.19;25.60;102174.72;5053636;28;20505;-77
2021/04/10 09:08:46;;;;;;;3.20;2.50;;;;;;;16.68;25.33;102174.94;5056273;28;20040;-73
2021/04/10 09:11:31;;;;;;;4.10;2.20;;;;;;;16.89;24.92;102171.84;5042879;28;20021;-76
2021/04/10 09:14:44;;;;;;;5.97;2.20;;;;;;;17.61;24.17;102171.16;5056955;28;20033;-74
2021/04/10 09:18:00;;;;;;;3.70;2.42;;;;;;;16.22;24.24;102158.09;5057699;28;20025;-74
2021/04/10 09:20:50;;;;;;;3.17;2.47;;;;;;;17.34;24.03;102168.22;5056050;28;20044;-73
2021/04/10 09:23:37;;;;;;;5.40;2.97;;;;;;;17.39;25.40;102156.63;5056997;28;20489;-74
2021/04/10 09:26:23;;;;;;;6.03;2.80;;;;;;;17.48;24.78;102152.94;5057210;28;20032;-73
2021/04/10 09:29:16;;;;;;;2.85;2.00;;;;;;;16.88;23.92;102149.78;5056158;28;20043;-73
2021/04/10 09:32:02;;;;;;;2.05;1.83;;;;;;;16.25;22.99;102150.13;5057348;28;20033;-76
2021/04/10 09:34:51;;;;;;;6.82;2.65;;;;;;;17.02;22.88;102152.16;5056918;28;20453;-76
2021/04/10 09:37:37;;;;;;;3.60;2.45;;;;;;;16.85;24.29;102144.59;5057054;28;20094;-74
2021/04/10 09:40:59;;;;;;;6.32;2.53;;;;;;;17.32;24.99;102139.09;5057389;28;20029;-75
2021/04/10 09:44:12;;;;;;;6.00;2.70;;;;;;;17.36;24.99;102131.97;4976136;28;20022;-73
2021/04/10 09:46:58;;;;;;;4.63;2.70;;;;;;;17.43;25.11;102134.47;5055437;28;20025;-73
2021/04/10 09:49:44;;;;;;;5.85;2.33;;;;;;;16.32;24.04;102136.75;5056073;28;20028;-73
2021/04/10 09:52:31;;;;;;;5.13;2.50;;;;;;;16.43;24.20;102126.88;5056481;28;20024;-75
2021/04/10 09:55:21;;;;;;;2.92;2.30;;;;;;;17.06;24.45;102124.69;5056828;28;20025;-74
2021/04/10 09:58:09;;;;;;;6.05;3.10;;;;;;;16.97;24.48;102124.91;5056278;28;20048;-74
2021/04/10 10:00:55;;;;;;;3.55;2.60;;;;;;;16.47;24.14;102115.34;5056544;28;20032;-73
2021/04/10 10:03:41;;;;;;;2.58;2.22;;;;;;;16.36;23.92;102114.63;5056092;28;20025;-73
2021/04/10 10:06:35;;;;;;;6.57;3.00;;;;;;;16.80;24.98;102119.94;5056649;28;20021;-74
2021/04/10 10:09:27;;;;;;;3.72;2.50;;;;;;;16.75;24.63;102105.94;5055969;28;20047;-74
2021/04/10 10:12:28;;;;;;;5.53;3.25;;;;;;;16.20;25.18;102102.59;5042695;28;20036;-73
2021/04/10 10:15:23;;;;;;;5.50;2.80;;;;;;;16.27;24.78;102108.66;5041193;28;20333;-72
2021/04/10 10:18:15;;;;;;;5.43;2.40;;;;;;;16.60;25.18;102105.41;5041453;28;20024;-73
2021/04/10 10:21:06;;;;;;;2.85;2.55;;;;;;;16.36;25.01;102109.34;5055796;28;20119;-75
2021/04/10 10:23:53;;;;;;;4.40;2.65;;;;;;;16.69;24.96;102097.25;5056202;28;20045;-72
2021/04/10 10:26:45;;;;;;;5.10;2.40;;;;;;;16.97;25.16;102094.00;5055633;28;20461;-73
2021/04/10 10:29:31;;;;;;;7.18;2.50;;;;;;;17.15;24.74;102093.59;5055823;28;20028;-73
2021/04/10 10:32:19;;;;;;;4.00;2.50;;;;;;;17.88;23.88;102084.78;5055450;28;20445;-75
2021/04/10 10:35:08;;;;;;;3.47;2.75;;;;;;;17.31;23.65;102086.16;5055425;28;20029;-73
2021/04/10 10:37:54;;;;;;;3.15;2.38;;;;;;;17.23;23.96;102082.81;5041196;28;20032;-73
2021/04/10 10:40:47;;;;;;;3.08;2.20;;;;;;;17.41;23.74;102074.47;5040866;28;20373;-72
2021/04/10 10:43:34;;;;;;;3.63;2.30;;;;;;;17.69;23.58;102076.41;5055736;28;20040;-73
2021/04/10 10:46:21;;;;;;;3.72;2.38;;;;;;;17.53;23.28;102063.59;5055330;28;20025;-73
2021/04/10 10:49:11;;;;;;;5.18;3.33;;;;;;;17.22;24.42;102062.53;5055702;28;20113;-73
2021/04/10 10:51:57;;;;;;;12.60;7.03;;;;;;;17.19;24.00;102065.25;5040485;28;20033;-73
2021/04/10 10:54:43;;;;;;;8.38;4.25;;;;;;;17.14;24.31;102064.47;5055824;28;20068;-73
2021/04/10 10:57:29;;;;;;;3.72;2.80;;;;;;;17.42;23.82;102057.66;5055159;28;20480;-73
2021/04/10 11:00:15;;;;;;;4.13;2.70;;;;;;;17.78;24.11;102054.09;5055910;28;20041;-72
2021/04/10 11:03:01;;;;;;;48.83;27.13;;;;;;;18.24;24.36;102051.94;5054841;28;20094;-73
2021/04/10 11:05:51;;;;;;;25.42;14.05;;;;;;;17.71;24.26;102047.19;5041373;28;20036;-73
2021/04/10 11:08:38;;;;;;;30.52;15.02;;;;;;;17.78;24.34;102044.38;5054734;28;20025;-73
2021/04/10 11:11:30;;;;;;;8.10;4.70;;;;;;;17.65;24.38;102044.72;5055078;28;20044;-73
2021/04/10 11:14:28;;;;;;;8.35;4.43;;;;;;;17.73;24.46;102035.66;5054813;28;20021;-73
2021/04/10 11:17:28;;;;;;;9.18;4.95;;;;;;;17.79;24.54;102032.84;5040366;28;20067;-73
2021/04/10 11:20:29;;;;;;;21.88;11.80;;;;;;;18.16;24.97;102032.72;5039620;28;20033;-73
2021/04/10 11:23:15;;;;;;;7.75;4.97;;;;;;;18.46;23.73;102024.81;5054430;28;20057;-75
2021/04/10 11:26:00;;;;;;;6.75;4.45;;;;;;;18.40;23.37;102026.75;5054690;28;20021;-74
2021/04/10 11:28:46;;;;;;;12.98;6.63;;;;;;;18.06;23.51;102025.94;5054151;28;20377;-73
2021/04/10 11:31:32;;;;;;;7.40;4.70;;;;;;;18.50;23.73;102022.94;5039103;28;20021;-73
2021/04/10 11:34:32;;;;;;;6.07;3.45;;;;;;;18.19;23.92;102017.59;5040355;28;20025;-73
2021/04/10 11:37:30;;;;;;;6.03;3.75;;;;;;;17.77;23.49;102002.00;5054638;28;20122;-73
2021/04/10 11:40:26;;;;;;;4.32;3.22;;;;;;;17.75;23.99;102007.34;5054306;28;20107;-73
2021/04/10 11:43:14;;;;;;;6.57;3.75;;;;;;;18.35;24.40;102008.31;5039862;28;20021;-73
2021/04/10 11:45:59;;;;;;;5.53;3.15;;;;;;;18.62;23.58;102002.19;5054144;28;20033;-74
2021/04/10 11:48:45;;;;;;;6.80;3.35;;;;;;;18.75;23.50;101997.38;5054940;28;20436;-73
2021/04/10 11:51:31;;;;;;;3.97;2.88;;;;;;;18.87;22.69;101987.25;5040182;28;20021;-73
2021/04/10 11:54:36;;;;;;;5.68;3.55;;;;;;;18.80;22.83;101990.13;5039687;28;20025;-73
2021/04/10 11:57:33;;;;;;;7.40;4.40;;;;;;;18.75;22.85;101981.44;5053925;28;20098;-73
2021/04/10 12:00:24;;;;;;;6.20;3.60;;;;;;;18.82;23.15;101981.19;5054952;28;20036;-72
2021/04/10 12:03:14;;;;;;;4.40;2.90;;;;;;;18.74;22.80;101985.03;5053736;28;20055;-72
2021/04/10 12:05:59;;;;;;;2.67;2.38;;;;;;;18.32;22.86;101971.22;5054367;28;20025;-73
2021/04/10 12:08:45;;;;;;;4.75;2.33;;;;;;;18.77;23.04;101963.69;5053738;28;20033;-73
2021/04/10 12:11:32;;;;;;;3.47;2.58;;;;;;;18.61;23.51;101957.97;5053740;28;20036;-74
2021/04/10 12:14:18;;;;;;;5.45;2.90;;;;;;;18.79;23.05;101952.09;5039106;28;20112;-73
2021/04/10 12:17:04;;;;;;;4.93;3.00;;;;;;;19.06;22.77;101939.72;5039844;28;20033;-73
2021/04/10 12:19:49;;;;;;;4.65;2.88;;;;;;;18.84;22.62;101938.66;5053845;28;20028;-73
2021/04/10 12:22:35;;;;;;;3.63;2.78;;;;;;;18.70;22.75;101928.47;5053066;28;20045;-73
2021/04/10 12:25:21;;;;;;;4.07;2.80;;;;;;;18.64;22.65;101930.47;5054645;28;20025;-72
2021/04/10 12:28:07;;;;;;;4.05;2.70;;;;;;;18.34;22.43;101931.41;5053621;28;20457;-73
2021/04/10 12:30:53;;;;;;;5.05;2.85;;;;;;;18.42;22.77;101930.28;5053411;28;20078;-73
2021/04/10 12:33:40;;;;;;;4.10;2.50;;;;;;;18.31;23.11;101920.84;5038924;28;20029;-73
2021/04/10 12:36:28;;;;;;;4.88;2.70;;;;;;;18.83;22.86;101915.69;5053699;28;20444;-73
2021/04/10 12:39:13;;;;;;;30.67;19.50;;;;;;;18.95;23.39;101912.63;5053302;28;20039;-73
2021/04/10 12:41:59;;;;;;;5.65;4.00;;;;;;;18.83;22.99;101913.03;5053320;28;20059;-72
2021/04/10 12:44:45;;;;;;;29.20;20.50;;;;;;;19.33;22.80;101911.38;5053459;28;20057;-74
2021/04/10 12:47:31;;;;;;;6.13;3.30;;;;;;;18.60;23.19;101902.25;5053510;28;20039;-73
2021/04/10 12:50:23;;;;;;;3.70;2.63;;;;;;;18.06;22.97;101898.63;5053376;28;20449;-73
2021/04/10 12:53:09;;;;;;;3.60;2.60;;;;;;;18.61;23.19;101891.59;5053309;28;20080;-73